createdAt,value
2022-09-21T00:01:24.050Z,48.49
2022-09-21T00:03:53.620Z,48.67
2022-09-21T00:06:19.614Z,48.69
2022-09-21T00:08:45.419Z,48.57
2022-09-21T00:11:14.966Z,48.66
2022-09-21T00:13:41.402Z,48.46
2022-09-21T00:16:07.387Z,48.70
2022-09-21T00:18:33.046Z,48.50
2022-09-21T00:20:58.671Z,48.62
2022-09-21T00:23:24.220Z,48.79
2022-09-21T00:25:49.760Z,48.84
2022-09-21T00:28:15.299Z,48.68
2022-09-21T00:30:40.835Z,48.76
2022-09-21T00:33:06.381Z,48.52
2022-09-21T00:35:32.734Z,48.71
2022-09-21T00:37:59.879Z,48.81
2022-09-21T00:40:25.491Z,48.66
2022-09-21T00:42:51.063Z,48.75
2022-09-21T00:45:23.787Z,48.80
2022-09-21T00:47:50.236Z,48.68
2022-09-21T00:50:16.979Z,48.67
2022-09-21T00:52:43.204Z,48.72
2022-09-21T00:55:11.314Z,48.67
2022-09-21T00:57:36.854Z,48.77
2022-09-21T01:00:04.300Z,48.56
2022-09-21T01:02:29.946Z,48.77
2022-09-21T01:04:55.583Z,48.56
2022-09-21T01:07:22.403Z,48.54
2022-09-21T01:09:49.599Z,48.72
2022-09-21T01:12:23.250Z,48.70
2022-09-21T01:15:09.119Z,48.76
2022-09-21T01:17:36.000Z,48.62
2022-09-21T01:20:20.999Z,48.69
2022-09-21T01:22:53.532Z,48.63
2022-09-21T01:28:14.508Z,48.86
2022-09-21T01:30:40.489Z,48.77
2022-09-21T01:33:08.260Z,48.77
2022-09-21T01:35:50.123Z,48.73
2022-09-21T01:38:18.631Z,48.73
2022-09-21T01:40:45.463Z,48.61
2022-09-21T01:43:13.423Z,48.91
2022-09-21T01:45:40.474Z,48.73
2022-09-21T01:48:06.031Z,48.79
2022-09-21T01:50:32.555Z,48.82
2022-09-21T01:52:59.771Z,48.79
2022-09-21T01:55:27.644Z,48.80
2022-09-21T01:57:55.681Z,48.70
2022-09-21T02:00:21.343Z,48.92
2022-09-21T02:03:07.930Z,48.88
2022-09-21T02:05:33.473Z,48.90
2022-09-21T02:07:59.031Z,48.83
2022-09-21T02:10:28.812Z,48.82
2022-09-21T02:12:57.689Z,48.81
2022-09-21T02:15:23.748Z,48.76
2022-09-21T02:17:54.199Z,48.52
2022-09-21T02:20:22.020Z,48.88
2022-09-21T02:23:07.492Z,48.72
2022-09-21T02:25:37.088Z,48.86
2022-09-21T02:28:22.519Z,48.71
2022-09-21T02:30:52.159Z,48.87
2022-09-21T02:33:19.876Z,48.73
2022-09-21T02:35:47.903Z,48.79
2022-09-21T02:38:31.842Z,48.83
2022-09-21T02:41:16.608Z,48.86
2022-09-21T02:43:44.603Z,48.76
2022-09-21T02:46:14.760Z,48.84
2022-09-21T02:48:42.516Z,48.95
2022-09-21T02:51:09.494Z,48.63
2022-09-21T02:53:36.156Z,48.74
2022-09-21T02:56:04.315Z,48.76
2022-09-21T02:58:30.175Z,48.87
2022-09-21T03:00:55.837Z,48.79
2022-09-21T03:03:22.497Z,48.73
2022-09-21T03:05:48.672Z,48.78
2022-09-21T03:08:14.800Z,48.74
2022-09-21T03:10:40.335Z,48.77
2022-09-21T03:13:08.261Z,48.69
2022-09-21T03:15:34.839Z,48.72
2022-09-21T03:18:00.828Z,48.74
2022-09-21T03:20:26.368Z,48.84
2022-09-21T03:22:51.923Z,48.74
2022-09-21T03:25:17.463Z,48.76
2022-09-21T03:27:43.010Z,48.72
2022-09-21T03:30:08.751Z,48.97
2022-09-21T03:32:34.290Z,49.02
2022-09-21T03:34:59.923Z,48.89
2022-09-21T03:37:25.477Z,48.87
2022-09-21T03:39:51.115Z,48.85
2022-09-21T03:42:16.664Z,48.78
2022-09-21T03:44:42.274Z,48.74
2022-09-21T03:47:07.830Z,48.79
2022-09-21T03:49:34.223Z,48.93
2022-09-21T03:52:00.197Z,48.94
2022-09-21T03:54:25.735Z,48.94
2022-09-21T03:56:51.280Z,48.82
2022-09-21T03:59:16.815Z,48.78
2022-09-21T04:01:42.596Z,48.82
2022-09-21T04:04:08.342Z,48.92
2022-09-21T04:06:33.967Z,48.75
2022-09-21T04:09:02.110Z,48.93
2022-09-21T04:11:27.648Z,48.90
2022-09-21T04:13:56.064Z,48.79
2022-09-21T04:16:24.902Z,48.90
2022-09-21T04:18:50.723Z,48.86
2022-09-21T04:21:17.025Z,48.77
2022-09-21T04:23:42.841Z,48.80
2022-09-21T04:26:17.904Z,48.78
2022-09-21T04:28:43.451Z,48.93
2022-09-21T04:31:09.027Z,48.74
2022-09-21T04:33:34.631Z,48.93
2022-09-21T04:36:01.117Z,48.84
2022-09-21T04:38:26.659Z,48.85
2022-09-21T04:40:53.902Z,48.97
2022-09-21T04:43:22.559Z,48.93
2022-09-21T04:45:48.296Z,48.92
2022-09-21T04:48:13.838Z,48.78
2022-09-21T04:50:39.378Z,48.81
2022-09-21T04:53:05.128Z,48.78
2022-09-21T04:55:30.883Z,48.84
2022-09-21T04:57:56.613Z,48.76
2022-09-21T05:00:22.150Z,48.85
2022-09-21T05:02:47.700Z,48.84
2022-09-21T05:05:13.248Z,48.80
2022-09-21T05:07:38.796Z,48.81
2022-09-21T05:10:04.618Z,48.96
2022-09-21T05:12:30.703Z,48.87
2022-09-21T05:14:56.251Z,48.96
2022-09-21T05:17:22.336Z,49.03
2022-09-21T05:19:48.270Z,48.88
2022-09-21T05:22:13.816Z,48.99
2022-09-21T05:24:39.356Z,48.85
2022-09-21T05:27:04.905Z,48.80
2022-09-21T05:29:30.600Z,48.65
2022-09-21T05:32:01.424Z,48.75
2022-09-21T05:34:44.740Z,48.83
2022-09-21T05:37:14.375Z,48.62
2022-09-21T05:39:40.139Z,48.88
2022-09-21T05:42:06.129Z,48.77
2022-09-21T05:44:31.741Z,48.63
2022-09-21T05:47:17.172Z,48.86
2022-09-21T05:49:50.723Z,48.87
2022-09-21T05:55:30.505Z,48.80
2022-09-21T05:58:01.170Z,48.57
2022-09-21T06:00:26.707Z,48.46
2022-09-21T06:02:55.222Z,48.75
2022-09-21T06:05:21.017Z,48.29
2022-09-21T06:07:46.561Z,47.76
2022-09-21T06:10:12.565Z,47.99
2022-09-21T06:12:38.176Z,47.46
2022-09-21T06:15:04.471Z,47.80
2022-09-21T06:17:30.018Z,47.62
2022-09-21T06:19:55.549Z,47.11
2022-09-21T06:22:21.098Z,46.22
2022-09-21T06:24:46.637Z,46.28
2022-09-21T06:27:12.187Z,47.12
2022-09-21T06:29:37.726Z,47.14
2022-09-21T06:32:03.646Z,47.62
2022-09-21T06:34:29.186Z,46.87
2022-09-21T06:36:54.730Z,47.26
2022-09-21T06:39:20.261Z,47.19
2022-09-21T06:41:45.798Z,47.17
2022-09-21T06:44:11.351Z,47.23
2022-09-21T06:46:36.898Z,47.47
2022-09-21T06:49:02.450Z,47.79
2022-09-21T06:51:27.992Z,47.91
2022-09-21T06:53:54.102Z,47.75
2022-09-21T06:56:19.816Z,47.78
2022-09-21T06:58:46.717Z,48.00
2022-09-21T07:01:12.743Z,47.73
2022-09-21T07:03:38.855Z,47.98
2022-09-21T07:06:04.733Z,47.79
2022-09-21T07:11:15.803Z,48.08
2022-09-21T07:13:41.702Z,47.77
2022-09-21T07:16:08.395Z,47.99
2022-09-21T07:18:42.665Z,47.82
2022-09-21T07:21:09.666Z,47.04
2022-09-21T07:23:35.330Z,46.75
2022-09-21T07:26:01.625Z,46.25
2022-09-21T07:28:27.182Z,45.92
2022-09-21T07:30:52.751Z,45.82
2022-09-21T07:33:18.300Z,45.69
2022-09-21T07:35:59.953Z,46.12
2022-09-21T07:38:25.515Z,46.08
2022-09-21T07:40:51.123Z,46.45
2022-09-21T07:43:17.011Z,46.51
2022-09-21T07:45:42.617Z,46.80
2022-09-21T07:48:08.235Z,46.79
2022-09-21T07:50:33.966Z,47.00
2022-09-21T07:52:59.976Z,47.08
2022-09-21T07:55:25.822Z,46.91
2022-09-21T07:58:11.270Z,47.26
2022-09-21T08:00:37.437Z,47.44
2022-09-21T08:03:04.123Z,47.37
2022-09-21T08:05:29.660Z,47.21
2022-09-21T08:07:56.166Z,47.60
2022-09-21T08:10:22.045Z,47.59
2022-09-21T08:12:47.598Z,47.57
2022-09-21T08:15:36.834Z,47.50
2022-09-21T08:17:59.986Z,47.36
2022-09-21T08:20:25.530Z,47.54
2022-09-21T08:22:52.857Z,47.84
2022-09-21T08:25:18.497Z,47.79
2022-09-21T08:27:44.042Z,47.72
2022-09-21T08:30:12.866Z,47.87
2022-09-21T08:32:50.979Z,47.58
2022-09-21T08:35:18.283Z,47.73
2022-09-21T08:37:43.936Z,47.78
2022-09-21T08:40:09.750Z,48.16
2022-09-21T08:42:50.603Z,47.53
2022-09-21T08:45:17.081Z,47.87
2022-09-21T08:47:44.514Z,48.11
2022-09-21T08:50:19.271Z,48.23
2022-09-21T08:52:47.373Z,47.51
2022-09-21T08:55:17.712Z,46.97
2022-09-21T08:57:43.482Z,47.22
2022-09-21T09:00:12.777Z,47.22
2022-09-21T09:02:58.197Z,47.36
2022-09-21T09:05:43.649Z,47.28
2022-09-21T09:08:29.086Z,47.42
2022-09-21T09:10:57.338Z,47.61
2022-09-21T09:13:30.151Z,47.24
2022-09-21T09:16:15.706Z,47.26
2022-09-21T09:19:01.169Z,46.94
2022-09-21T09:21:31.913Z,47.19
2022-09-21T09:24:06.165Z,47.22
2022-09-21T09:26:33.482Z,46.96
2022-09-21T09:29:00.312Z,46.68
2022-09-21T09:31:27.539Z,47.11
2022-09-21T09:33:55.117Z,46.92
2022-09-21T09:36:34.774Z,47.16
2022-09-21T09:39:15.739Z,47.22
2022-09-21T09:42:01.210Z,47.23
2022-09-21T09:47:31.910Z,47.23
2022-09-21T09:50:00.890Z,47.05
2022-09-21T09:52:26.998Z,47.53
2022-09-21T09:54:53.846Z,47.70
2022-09-21T09:57:25.291Z,47.05
2022-09-21T09:59:54.826Z,46.87
2022-09-21T10:02:21.315Z,47.50
2022-09-21T10:05:08.046Z,47.10
2022-09-21T10:07:34.593Z,47.43
2022-09-21T10:10:00.173Z,46.61
2022-09-21T10:12:26.686Z,46.93
2022-09-21T10:14:52.971Z,46.62
2022-09-21T10:17:18.651Z,44.86
2022-09-21T10:19:44.199Z,45.70
2022-09-21T10:22:17.602Z,45.62
2022-09-21T10:24:48.407Z,45.85
2022-09-21T10:27:14.861Z,45.42
2022-09-21T10:29:41.522Z,44.76
2022-09-21T10:32:16.953Z,45.31
2022-09-21T10:34:58.986Z,45.54
2022-09-21T10:37:26.193Z,45.58
2022-09-21T10:39:51.907Z,45.46
2022-09-21T10:42:17.675Z,45.27
2022-09-21T10:44:44.541Z,45.58
2022-09-21T10:47:29.984Z,45.91
2022-09-21T10:49:56.350Z,45.46
2022-09-21T10:52:31.480Z,45.49
2022-09-21T10:54:57.023Z,45.61
2022-09-21T10:57:23.191Z,45.96
2022-09-21T10:59:48.834Z,45.75
2022-09-21T11:02:34.119Z,45.86
2022-09-21T11:05:09.747Z,45.98
2022-09-21T11:07:51.684Z,45.76
2022-09-21T11:10:19.971Z,46.32
2022-09-21T11:12:48.985Z,46.23
2022-09-21T11:15:34.446Z,46.37
2022-09-21T11:18:04.131Z,46.49
2022-09-21T11:20:31.121Z,46.08
2022-09-21T11:25:40.491Z,45.23
2022-09-21T11:28:12.570Z,43.69
2022-09-21T11:30:42.355Z,44.71
2022-09-21T11:33:13.034Z,44.69
2022-09-21T11:35:43.544Z,44.15
2022-09-21T11:43:34.730Z,44.15
2022-09-21T11:46:20.265Z,44.11
2022-09-21T11:49:05.848Z,43.85
2022-09-21T11:51:55.975Z,43.60
2022-09-21T11:57:10.377Z,44.35
2022-09-21T11:59:47.043Z,44.70
2022-09-21T12:02:30.931Z,44.46
2022-09-21T12:04:58.376Z,44.87
2022-09-21T12:07:35.206Z,45.58
2022-09-21T12:10:07.577Z,45.03
2022-09-21T12:12:53.487Z,44.23
2022-09-21T12:15:38.913Z,44.18
2022-09-21T12:18:13.865Z,44.30
2022-09-21T12:20:48.070Z,43.05
2022-09-21T12:23:16.661Z,44.34
2022-09-21T12:25:43.441Z,46.08
2022-09-21T12:28:29.000Z,43.62
2022-09-21T12:31:00.909Z,43.12
2022-09-21T12:33:46.469Z,44.31
2022-09-21T12:36:16.701Z,43.32
2022-09-21T12:38:48.323Z,43.56
2022-09-21T12:41:18.301Z,43.86
2022-09-21T12:43:46.311Z,44.10
2022-09-21T12:46:20.167Z,44.04
2022-09-21T12:48:45.779Z,44.16
2022-09-21T12:51:12.849Z,43.82
2022-09-21T12:53:39.349Z,43.07
2022-09-21T12:56:12.540Z,42.81
2022-09-21T12:58:58.044Z,43.63
2022-09-21T13:01:43.637Z,42.94
2022-09-21T13:04:29.134Z,42.93
2022-09-21T13:07:01.198Z,42.52
2022-09-21T13:09:26.745Z,42.96
2022-09-21T13:11:55.750Z,43.34
2022-09-21T13:14:23.399Z,43.56
2022-09-21T13:16:56.886Z,42.16
2022-09-21T13:19:23.054Z,41.81
2022-09-21T13:22:12.038Z,42.35
2022-09-21T13:24:37.583Z,42.67
2022-09-21T13:27:05.726Z,43.09
2022-09-21T13:29:32.553Z,43.18
2022-09-21T13:31:59.937Z,43.42
2022-09-21T13:34:34.322Z,43.46
2022-09-21T13:37:19.758Z,43.16
2022-09-21T13:40:03.356Z,43.62
2022-09-21T13:45:24.612Z,42.87
2022-09-21T13:47:50.827Z,43.11
2022-09-21T13:50:36.340Z,42.37
2022-09-21T13:53:02.999Z,42.66
2022-09-21T13:55:29.843Z,42.98
2022-09-21T13:57:56.223Z,42.57
2022-09-21T14:03:03.218Z,43.08
2022-09-21T14:05:44.662Z,43.23
2022-09-21T14:08:16.084Z,43.26
2022-09-21T14:11:01.782Z,43.23
2022-09-21T14:13:34.204Z,43.16
2022-09-21T14:16:19.750Z,42.55
2022-09-21T14:18:46.110Z,43.56
2022-09-21T14:21:16.477Z,43.66
2022-09-21T14:24:03.982Z,43.27
2022-09-21T14:26:45.835Z,44.06
2022-09-21T14:29:14.634Z,43.20
2022-09-21T14:31:40.228Z,45.00
2022-09-21T14:34:09.894Z,45.89
2022-09-21T14:36:40.589Z,45.92
2022-09-21T14:39:07.061Z,45.62
2022-09-21T14:41:38.150Z,45.66
2022-09-21T14:44:03.691Z,45.15
2022-09-21T14:46:49.189Z,44.62
2022-09-21T14:49:19.761Z,44.57
2022-09-21T14:51:55.647Z,43.79
2022-09-21T14:54:33.227Z,44.89
2022-09-21T14:57:18.779Z,44.49
2022-09-21T14:59:53.046Z,44.56
2022-09-21T15:02:20.254Z,44.49
2022-09-21T15:05:05.752Z,44.57
2022-09-21T15:07:56.747Z,44.63
2022-09-21T15:10:44.287Z,44.71
2022-09-21T15:13:12.922Z,44.63
2022-09-21T15:15:58.409Z,44.95
2022-09-21T15:18:24.954Z,44.65
2022-09-21T15:21:00.563Z,44.29
2022-09-21T15:23:26.490Z,44.23
2022-09-21T15:25:53.739Z,45.03
2022-09-21T15:28:19.281Z,44.51
2022-09-21T15:30:45.814Z,45.58
2022-09-21T15:33:11.369Z,44.52
2022-09-21T15:35:36.924Z,44.28
2022-09-21T15:38:02.464Z,44.34
2022-09-21T15:40:30.469Z,44.30
2022-09-21T15:43:16.070Z,44.39
2022-09-21T15:46:01.616Z,44.41
2022-09-21T15:48:31.746Z,44.50
2022-09-21T15:50:59.554Z,44.41
2022-09-21T15:53:25.940Z,44.46
2022-09-21T15:55:51.641Z,44.59
2022-09-21T15:58:21.818Z,44.65
2022-09-21T16:00:54.062Z,44.65
2022-09-21T16:03:20.353Z,44.62
2022-09-21T16:05:49.822Z,44.58
2022-09-21T16:08:17.257Z,44.58
2022-09-21T16:10:43.826Z,44.61
2022-09-21T16:13:44.312Z,44.52
2022-09-21T16:16:11.913Z,44.60
2022-09-21T16:18:42.265Z,44.76
2022-09-21T16:21:12.922Z,44.65
2022-09-21T16:23:38.645Z,44.82
2022-09-21T16:26:04.288Z,44.69
2022-09-21T16:28:34.195Z,44.57
2022-09-21T16:31:21.490Z,44.64
2022-09-21T16:36:31.517Z,44.81
2022-09-21T16:38:57.179Z,44.69
2022-09-21T16:41:23.912Z,44.74
2022-09-21T16:43:50.213Z,44.85
2022-09-21T16:46:15.927Z,44.85
2022-09-21T16:48:41.485Z,45.01
2022-09-21T16:51:14.749Z,44.89
2022-09-21T16:53:40.469Z,44.76
2022-09-21T16:56:10.586Z,45.02
2022-09-21T16:58:36.159Z,44.98
2022-09-21T17:01:01.983Z,44.86
2022-09-21T17:03:29.908Z,44.92
2022-09-21T17:05:56.467Z,45.01
2022-09-21T17:08:23.249Z,45.00
2022-09-21T17:10:48.799Z,44.99
2022-09-21T17:13:16.149Z,45.03
2022-09-21T17:15:43.500Z,45.01
2022-09-21T17:18:09.787Z,45.02
2022-09-21T17:20:36.162Z,45.17
2022-09-21T17:23:02.406Z,44.96
2022-09-21T17:25:29.107Z,45.11
2022-09-21T17:27:57.222Z,45.16
2022-09-21T17:30:23.629Z,45.04
2022-09-21T17:32:49.221Z,45.28
2022-09-21T17:35:16.738Z,45.24
2022-09-21T17:37:42.386Z,45.21
2022-09-21T17:40:10.829Z,44.91
2022-09-21T17:42:38.894Z,45.34
2022-09-21T17:47:44.307Z,45.24
2022-09-21T17:53:06.711Z,45.37
2022-09-21T17:55:32.397Z,45.28
2022-09-21T17:58:03.670Z,45.39
2022-09-21T18:00:33.089Z,45.34
2022-09-21T18:02:58.748Z,45.28
2022-09-21T18:05:25.267Z,45.45
2022-09-21T18:07:51.154Z,45.41
2022-09-21T18:10:18.109Z,45.62
2022-09-21T18:13:06.115Z,45.41
2022-09-21T18:18:31.768Z,45.51
2022-09-21T18:21:02.729Z,45.55
2022-09-21T18:23:48.154Z,45.48
2022-09-21T18:26:15.602Z,45.59
2022-09-21T18:28:44.083Z,45.33
2022-09-21T18:34:12.160Z,45.47
2022-09-21T18:36:57.970Z,45.48
2022-09-21T18:39:32.873Z,45.45
2022-09-21T18:42:05.070Z,45.73
2022-09-21T18:44:50.692Z,45.56
2022-09-21T18:47:19.010Z,45.61
2022-09-21T18:49:47.853Z,45.52
2022-09-21T18:52:34.446Z,45.69
2022-09-21T18:54:59.995Z,45.54
2022-09-21T18:57:25.658Z,45.69
2022-09-21T18:59:51.235Z,45.81
2022-09-21T19:02:19.163Z,45.77
2022-09-21T19:04:45.087Z,45.63
2022-09-21T19:07:30.566Z,45.78
2022-09-21T19:09:59.162Z,45.69
2022-09-21T19:12:30.599Z,45.72
2022-09-21T19:15:16.238Z,45.70
2022-09-21T19:17:46.333Z,45.80
2022-09-21T19:20:31.766Z,45.77
2022-09-21T19:23:01.683Z,45.78
2022-09-21T19:25:36.710Z,45.80
2022-09-21T19:28:15.553Z,45.75
2022-09-21T19:30:41.141Z,45.81
2022-09-21T19:33:32.240Z,45.81
2022-09-21T19:36:02.642Z,45.73
2022-09-21T19:38:28.595Z,45.83
2022-09-21T19:40:57.315Z,45.75
2022-09-21T19:43:28.482Z,45.79
2022-09-21T19:46:13.948Z,45.92
2022-09-21T19:48:44.002Z,45.72
2022-09-21T19:51:29.430Z,45.89
2022-09-21T19:54:15.477Z,46.00
2022-09-21T19:57:04.262Z,45.81
2022-09-21T19:59:45.005Z,45.91
2022-09-21T20:02:14.803Z,45.86
2022-09-21T20:04:56.226Z,45.92
2022-09-21T20:07:25.066Z,45.99
2022-09-21T20:09:55.905Z,45.88
2022-09-21T20:12:23.503Z,45.96
2022-09-21T20:14:59.669Z,45.89
2022-09-21T20:17:45.089Z,46.07
2022-09-21T20:20:12.923Z,46.01
2022-09-21T20:22:39.106Z,46.00
2022-09-21T20:27:50.025Z,46.11
2022-09-21T20:30:16.301Z,46.04
2022-09-21T20:32:43.678Z,45.94
2022-09-21T20:35:14.102Z,46.00
2022-09-21T20:37:39.659Z,46.12
2022-09-21T20:40:05.473Z,46.00
2022-09-21T20:42:33.514Z,46.14
2022-09-21T20:44:59.058Z,45.98
2022-09-21T20:47:25.046Z,46.17
2022-09-21T20:49:50.594Z,46.08
2022-09-21T20:52:16.498Z,46.15
2022-09-21T20:54:48.304Z,46.20
2022-09-21T20:57:15.035Z,46.28
2022-09-21T20:59:40.580Z,46.21
2022-09-21T21:02:06.974Z,46.20
2022-09-21T21:04:32.732Z,46.19
2022-09-21T21:06:58.275Z,46.12
2022-09-21T21:09:24.500Z,46.20
2022-09-21T21:11:50.559Z,46.15
2022-09-21T21:14:16.108Z,46.31
2022-09-21T21:16:41.724Z,46.22
2022-09-21T21:19:07.342Z,46.24
2022-09-21T21:21:33.706Z,46.14
2022-09-21T21:24:19.161Z,46.15
2022-09-21T21:27:01.392Z,46.22
2022-09-21T21:29:27.595Z,46.30
2022-09-21T21:31:53.170Z,46.26
2022-09-21T21:34:18.749Z,46.18
2022-09-21T21:36:44.638Z,46.23
2022-09-21T21:39:10.179Z,46.30
2022-09-21T21:41:35.719Z,46.27
2022-09-21T21:44:01.263Z,46.39
2022-09-21T21:46:26.932Z,46.35
2022-09-21T21:48:52.496Z,46.28
2022-09-21T21:51:18.046Z,46.31
2022-09-21T21:53:43.747Z,46.38
2022-09-21T21:56:10.544Z,46.43
2022-09-21T21:58:36.163Z,46.54
2022-09-21T22:01:05.784Z,46.42
2022-09-21T22:03:31.367Z,46.49
2022-09-21T22:05:56.907Z,46.36
2022-09-21T22:08:22.456Z,46.37
2022-09-21T22:10:48.959Z,46.37
2022-09-21T22:13:17.080Z,46.41
2022-09-21T22:15:43.690Z,46.41
2022-09-21T22:18:09.227Z,46.57
2022-09-21T22:20:34.788Z,46.44
2022-09-21T22:23:00.832Z,46.41
2022-09-21T22:25:27.544Z,46.41
2022-09-21T22:27:53.202Z,46.49
2022-09-21T22:30:19.019Z,46.45
2022-09-21T22:32:44.580Z,46.58
2022-09-21T22:35:10.575Z,46.44
2022-09-21T22:37:36.116Z,46.45
2022-09-21T22:40:02.090Z,46.58
2022-09-21T22:42:27.715Z,46.44
2022-09-21T22:44:53.283Z,46.58
2022-09-21T22:47:18.833Z,46.46
2022-09-21T22:49:44.371Z,46.58
2022-09-21T22:52:09.928Z,46.59
2022-09-21T22:54:35.472Z,46.63
2022-09-21T22:57:01.023Z,46.58
2022-09-21T22:59:26.560Z,46.47
2022-09-21T23:01:52.117Z,46.55
2022-09-21T23:04:17.795Z,46.74
2022-09-21T23:06:44.191Z,46.48
2022-09-21T23:09:14.011Z,46.64
2022-09-21T23:11:46.307Z,46.60
2022-09-21T23:14:13.559Z,46.56
2022-09-21T23:16:39.121Z,46.70
2022-09-21T23:19:04.740Z,46.72
2022-09-21T23:21:30.301Z,46.60
2022-09-21T23:23:58.798Z,46.66
2022-09-21T23:26:25.347Z,46.62
2022-09-21T23:28:51.879Z,46.67
2022-09-21T23:31:17.689Z,46.72
2022-09-21T23:33:44.556Z,46.70
2022-09-21T23:36:10.850Z,46.74
2022-09-21T23:38:36.875Z,46.68
2022-09-21T23:41:04.664Z,46.55
2022-09-21T23:43:30.464Z,46.74
2022-09-21T23:45:59.051Z,46.60
2022-09-21T23:48:24.701Z,46.80
2022-09-21T23:50:50.259Z,46.62
2022-09-21T23:53:15.812Z,46.75
2022-09-21T23:55:41.342Z,46.88
2022-09-21T23:58:06.889Z,46.76
